sensor_id;sensor_type;location;lat;lon;timestamp;P1;durP1;ratioP1;P2;durP2;ratioP2
62102;SDS011;48077;48.104;11.702;2023-05-10T00:01:38;3.25;;;1.30;;
62102;SDS011;48077;48.104;11.702;2023-05-10T00:07:40;5.40;;;2.15;;
62102;SDS011;48077;48.104;11.702;2023-05-10T00:10:07;5.15;;;1.67;;
62102;SDS011;48077;48.104;11.702;2023-05-10T00:12:31;4.43;;;1.85;;
62102;SDS011;48077;48.104;11.702;2023-05-10T00:14:54;3.35;;;1.40;;
62102;SDS011;48077;48.104;11.702;2023-05-10T00:17:17;4.78;;;1.40;;
62102;SDS011;48077;48.104;11.702;2023-05-10T00:19:41;3.30;;;1.30;;
62102;SDS011;48077;48.104;11.702;2023-05-10T00:22:04;4.10;;;1.52;;
62102;SDS011;48077;48.104;11.702;2023-05-10T00:24:27;2.25;;;1.20;;
62102;SDS011;48077;48.104;11.702;2023-05-10T00:26:51;3.10;;;1.20;;
62102;SDS011;48077;48.104;11.702;2023-05-10T00:29:14;6.15;;;1.92;;
62102;SDS011;48077;48.104;11.702;2023-05-10T00:31:38;4.93;;;1.95;;
62102;SDS011;48077;48.104;11.702;2023-05-10T00:34:01;4.28;;;1.42;;
62102;SDS011;48077;48.104;11.702;2023-05-10T00:36:24;4.28;;;1.95;;
62102;SDS011;48077;48.104;11.702;2023-05-10T00:38:48;4.25;;;1.35;;
62102;SDS011;48077;48.104;11.702;2023-05-10T00:41:11;3.55;;;1.45;;
62102;SDS011;48077;48.104;11.702;2023-05-10T00:43:34;3.63;;;1.33;;
62102;SDS011;48077;48.104;11.702;2023-05-10T00:45:58;4.93;;;1.58;;
62102;SDS011;48077;48.104;11.702;2023-05-10T00:48:22;4.20;;;1.23;;
62102;SDS011;48077;48.104;11.702;2023-05-10T00:50:46;4.50;;;1.33;;
62102;SDS011;48077;48.104;11.702;2023-05-10T00:53:09;2.60;;;1.33;;
62102;SDS011;48077;48.104;11.702;2023-05-10T00:55:33;5.65;;;2.03;;
62102;SDS011;48077;48.104;11.702;2023-05-10T00:57:56;3.45;;;1.27;;
62102;SDS011;48077;48.104;11.702;2023-05-10T01:00:19;5.00;;;1.58;;
62102;SDS011;48077;48.104;11.702;2023-05-10T01:02:46;4.10;;;1.38;;
62102;SDS011;48077;48.104;11.702;2023-05-10T01:05:10;3.35;;;1.63;;
62102;SDS011;48077;48.104;11.702;2023-05-10T01:07:34;2.97;;;1.38;;
62102;SDS011;48077;48.104;11.702;2023-05-10T01:09:57;3.35;;;1.17;;
62102;SDS011;48077;48.104;11.702;2023-05-10T01:12:21;9.70;;;2.72;;
62102;SDS011;48077;48.104;11.702;2023-05-10T01:14:48;5.20;;;1.63;;
62102;SDS011;48077;48.104;11.702;2023-05-10T01:17:11;2.13;;;1.45;;
62102;SDS011;48077;48.104;11.702;2023-05-10T01:19:35;4.50;;;1.33;;
62102;SDS011;48077;48.104;11.702;2023-05-10T01:33:33;2.72;;;1.25;;
62102;SDS011;48077;48.104;11.702;2023-05-10T01:39:28;3.78;;;1.85;;
62102;SDS011;48077;48.104;11.702;2023-05-10T01:41:57;3.63;;;1.15;;
62102;SDS011;48077;48.104;11.702;2023-05-10T01:44:39;4.63;;;1.77;;
62102;SDS011;48077;48.104;11.702;2023-05-10T01:47:13;2.95;;;1.10;;
62102;SDS011;48077;48.104;11.702;2023-05-10T01:49:42;1.58;;;0.80;;
62102;SDS011;48077;48.104;11.702;2023-05-10T01:52:10;2.42;;;0.98;;
62102;SDS011;48077;48.104;11.702;2023-05-10T01:54:37;6.68;;;1.67;;
62102;SDS011;48077;48.104;11.702;2023-05-10T01:57:05;1.27;;;0.80;;
62102;SDS011;48077;48.104;11.702;2023-05-10T01:59:33;2.63;;;1.13;;
62102;SDS011;48077;48.104;11.702;2023-05-10T02:02:04;3.65;;;1.02;;
62102;SDS011;48077;48.104;11.702;2023-05-10T02:04:29;5.88;;;1.77;;
62102;SDS011;48077;48.104;11.702;2023-05-10T02:06:53;2.83;;;0.90;;
62102;SDS011;48077;48.104;11.702;2023-05-10T02:09:18;3.60;;;1.30;;
62102;SDS011;48077;48.104;11.702;2023-05-10T02:11:43;2.90;;;1.45;;
62102;SDS011;48077;48.104;11.702;2023-05-10T02:14:07;2.40;;;1.00;;
62102;SDS011;48077;48.104;11.702;2023-05-10T02:16:34;1.75;;;0.85;;
62102;SDS011;48077;48.104;11.702;2023-05-10T02:18:59;5.75;;;1.45;;
62102;SDS011;48077;48.104;11.702;2023-05-10T02:21:24;2.85;;;1.02;;
62102;SDS011;48077;48.104;11.702;2023-05-10T02:23:48;0.98;;;0.80;;
62102;SDS011;48077;48.104;11.702;2023-05-10T02:26:16;3.17;;;1.08;;
62102;SDS011;48077;48.104;11.702;2023-05-10T02:28:41;3.40;;;1.50;;
62102;SDS011;48077;48.104;11.702;2023-05-10T02:31:05;2.40;;;0.95;;
62102;SDS011;48077;48.104;11.702;2023-05-10T02:33:30;2.58;;;1.42;;
62102;SDS011;48077;48.104;11.702;2023-05-10T02:35:55;2.70;;;0.80;;
62102;SDS011;48077;48.104;11.702;2023-05-10T02:38:20;2.42;;;0.98;;
62102;SDS011;48077;48.104;11.702;2023-05-10T02:40:45;2.67;;;1.38;;
62102;SDS011;48077;48.104;11.702;2023-05-10T02:43:13;3.00;;;1.25;;
62102;SDS011;48077;48.104;11.702;2023-05-10T02:45:39;3.70;;;1.15;;
62102;SDS011;48077;48.104;11.702;2023-05-10T02:48:04;4.20;;;1.38;;
62102;SDS011;48077;48.104;11.702;2023-05-10T02:50:28;2.90;;;0.95;;
62102;SDS011;48077;48.104;11.702;2023-05-10T02:52:56;3.33;;;1.10;;
62102;SDS011;48077;48.104;11.702;2023-05-10T02:55:25;3.28;;;1.13;;
62102;SDS011;48077;48.104;11.702;2023-05-10T02:57:57;1.33;;;0.90;;
62102;SDS011;48077;48.104;11.702;2023-05-10T03:00:24;3.63;;;1.48;;
62102;SDS011;48077;48.104;11.702;2023-05-10T03:02:47;5.32;;;1.75;;
62102;SDS011;48077;48.104;11.702;2023-05-10T03:05:11;5.90;;;1.95;;
62102;SDS011;48077;48.104;11.702;2023-05-10T03:07:34;1.50;;;0.80;;
62102;SDS011;48077;48.104;11.702;2023-05-10T03:09:58;0.80;;;0.80;;
62102;SDS011;48077;48.104;11.702;2023-05-10T03:13:10;4.13;;;1.35;;
62102;SDS011;48077;48.104;11.702;2023-05-10T03:18:17;2.08;;;0.70;;
62102;SDS011;48077;48.104;11.702;2023-05-10T03:20:49;3.08;;;1.17;;
62102;SDS011;48077;48.104;11.702;2023-05-10T03:26:20;3.17;;;1.42;;
62102;SDS011;48077;48.104;11.702;2023-05-10T03:28:47;1.42;;;0.70;;
62102;SDS011;48077;48.104;11.702;2023-05-10T03:31:11;3.13;;;1.35;;
62102;SDS011;48077;48.104;11.702;2023-05-10T03:33:35;1.00;;;0.70;;
62102;SDS011;48077;48.104;11.702;2023-05-10T03:35:58;4.63;;;1.17;;
62102;SDS011;48077;48.104;11.702;2023-05-10T03:38:22;1.52;;;0.73;;
62102;SDS011;48077;48.104;11.702;2023-05-10T03:40:45;3.50;;;1.38;;
62102;SDS011;48077;48.104;11.702;2023-05-10T03:43:08;2.72;;;1.05;;
62102;SDS011;48077;48.104;11.702;2023-05-10T03:45:32;2.75;;;0.93;;
62102;SDS011;48077;48.104;11.702;2023-05-10T03:47:55;3.05;;;1.10;;
62102;SDS011;48077;48.104;11.702;2023-05-10T03:50:19;3.42;;;1.13;;
62102;SDS011;48077;48.104;11.702;2023-05-10T03:52:43;6.88;;;1.58;;
62102;SDS011;48077;48.104;11.702;2023-05-10T03:55:08;4.18;;;1.30;;
62102;SDS011;48077;48.104;11.702;2023-05-10T03:57:32;3.83;;;1.17;;
62102;SDS011;48077;48.104;11.702;2023-05-10T03:59:55;1.90;;;1.15;;
62102;SDS011;48077;48.104;11.702;2023-05-10T04:02:18;2.08;;;0.93;;
62102;SDS011;48077;48.104;11.702;2023-05-10T04:04:42;4.13;;;1.17;;
62102;SDS011;48077;48.104;11.702;2023-05-10T04:07:05;4.72;;;1.13;;
62102;SDS011;48077;48.104;11.702;2023-05-10T04:09:29;2.90;;;0.80;;
62102;SDS011;48077;48.104;11.702;2023-05-10T04:11:52;2.85;;;1.23;;
62102;SDS011;48077;48.104;11.702;2023-05-10T04:14:16;4.90;;;1.30;;
62102;SDS011;48077;48.104;11.702;2023-05-10T04:16:39;2.05;;;1.23;;
62102;SDS011;48077;48.104;11.702;2023-05-10T04:19:02;2.42;;;0.95;;
62102;SDS011;48077;48.104;11.702;2023-05-10T04:21:29;2.90;;;1.00;;
62102;SDS011;48077;48.104;11.702;2023-05-10T04:23:53;4.07;;;1.10;;
62102;SDS011;48077;48.104;11.702;2023-05-10T04:26:16;4.90;;;1.30;;
62102;SDS011;48077;48.104;11.702;2023-05-10T04:28:40;3.90;;;1.20;;
62102;SDS011;48077;48.104;11.702;2023-05-10T04:31:04;4.63;;;1.50;;
62102;SDS011;48077;48.104;11.702;2023-05-10T04:33:31;3.25;;;1.00;;
62102;SDS011;48077;48.104;11.702;2023-05-10T04:35:54;2.90;;;0.95;;
62102;SDS011;48077;48.104;11.702;2023-05-10T04:38:18;4.28;;;1.48;;
62102;SDS011;48077;48.104;11.702;2023-05-10T04:40:41;4.47;;;1.42;;
62102;SDS011;48077;48.104;11.702;2023-05-10T04:43:04;3.15;;;1.10;;
62102;SDS011;48077;48.104;11.702;2023-05-10T04:45:28;2.50;;;0.95;;
62102;SDS011;48077;48.104;11.702;2023-05-10T04:47:51;4.35;;;1.13;;
62102;SDS011;48077;48.104;11.702;2023-05-10T04:50:15;3.20;;;0.95;;
62102;SDS011;48077;48.104;11.702;2023-05-10T04:52:38;5.15;;;1.35;;
62102;SDS011;48077;48.104;11.702;2023-05-10T04:55:01;0.68;;;0.60;;
62102;SDS011;48077;48.104;11.702;2023-05-10T04:57:25;4.13;;;1.00;;
62102;SDS011;48077;48.104;11.702;2023-05-10T04:59:48;2.90;;;0.85;;
62102;SDS011;48077;48.104;11.702;2023-05-10T05:02:12;3.00;;;1.10;;
62102;SDS011;48077;48.104;11.702;2023-05-10T05:04:35;3.83;;;1.25;;
62102;SDS011;48077;48.104;11.702;2023-05-10T05:06:58;2.58;;;1.00;;
62102;SDS011;48077;48.104;11.702;2023-05-10T05:09:22;3.40;;;1.15;;
62102;SDS011;48077;48.104;11.702;2023-05-10T05:11:45;3.28;;;1.05;;
62102;SDS011;48077;48.104;11.702;2023-05-10T05:14:09;2.67;;;1.08;;
62102;SDS011;48077;48.104;11.702;2023-05-10T05:16:32;5.15;;;1.50;;
62102;SDS011;48077;48.104;11.702;2023-05-10T05:18:55;2.25;;;0.90;;
62102;SDS011;48077;48.104;11.702;2023-05-10T05:21:19;1.58;;;0.70;;
62102;SDS011;48077;48.104;11.702;2023-05-10T05:23:43;5.30;;;1.02;;
62102;SDS011;48077;48.104;11.702;2023-05-10T05:26:06;3.45;;;1.05;;
62102;SDS011;48077;48.104;11.702;2023-05-10T05:28:32;2.40;;;0.85;;
62102;SDS011;48077;48.104;11.702;2023-05-10T05:31:00;3.40;;;0.98;;
62102;SDS011;48077;48.104;11.702;2023-05-10T05:33:23;3.67;;;1.20;;
62102;SDS011;48077;48.104;11.702;2023-05-10T05:35:46;4.95;;;1.08;;
62102;SDS011;48077;48.104;11.702;2023-05-10T05:38:13;3.15;;;1.17;;
62102;SDS011;48077;48.104;11.702;2023-05-10T05:40:39;2.95;;;0.93;;
62102;SDS011;48077;48.104;11.702;2023-05-10T05:43:02;1.27;;;0.73;;
62102;SDS011;48077;48.104;11.702;2023-05-10T05:45:25;1.30;;;0.98;;
62102;SDS011;48077;48.104;11.702;2023-05-10T05:47:49;2.70;;;0.90;;
62102;SDS011;48077;48.104;11.702;2023-05-10T05:50:12;7.70;;;2.28;;
62102;SDS011;48077;48.104;11.702;2023-05-10T05:52:36;5.72;;;1.45;;
62102;SDS011;48077;48.104;11.702;2023-05-10T05:54:59;3.72;;;1.13;;
62102;SDS011;48077;48.104;11.702;2023-05-10T05:57:23;2.50;;;1.30;;
62102;SDS011;48077;48.104;11.702;2023-05-10T05:59:46;3.85;;;1.15;;
62102;SDS011;48077;48.104;11.702;2023-05-10T06:02:10;4.32;;;1.23;;
62102;SDS011;48077;48.104;11.702;2023-05-10T06:04:33;6.15;;;1.73;;
62102;SDS011;48077;48.104;11.702;2023-05-10T06:06:57;2.38;;;1.05;;
62102;SDS011;48077;48.104;11.702;2023-05-10T06:09:20;6.68;;;2.05;;
62102;SDS011;48077;48.104;11.702;2023-05-10T06:11:43;6.43;;;1.90;;
62102;SDS011;48077;48.104;11.702;2023-05-10T06:14:07;5.95;;;1.77;;
62102;SDS011;48077;48.104;11.702;2023-05-10T06:16:31;6.53;;;2.00;;
62102;SDS011;48077;48.104;11.702;2023-05-10T06:18:54;5.88;;;1.70;;
62102;SDS011;48077;48.104;11.702;2023-05-10T06:21:18;5.85;;;1.83;;
62102;SDS011;48077;48.104;11.702;2023-05-10T06:23:41;6.20;;;1.98;;
62102;SDS011;48077;48.104;11.702;2023-05-10T06:26:05;6.32;;;2.10;;
62102;SDS011;48077;48.104;11.702;2023-05-10T06:28:28;6.20;;;2.08;;
62102;SDS011;48077;48.104;11.702;2023-05-10T06:30:51;5.22;;;1.83;;
62102;SDS011;48077;48.104;11.702;2023-05-10T06:33:15;5.28;;;1.77;;
62102;SDS011;48077;48.104;11.702;2023-05-10T06:35:39;5.00;;;1.77;;
62102;SDS011;48077;48.104;11.702;2023-05-10T06:38:02;5.90;;;1.88;;
62102;SDS011;48077;48.104;11.702;2023-05-10T06:40:25;3.60;;;1.52;;
62102;SDS011;48077;48.104;11.702;2023-05-10T06:42:49;5.72;;;1.52;;
62102;SDS011;48077;48.104;11.702;2023-05-10T06:45:12;6.80;;;1.83;;
62102;SDS011;48077;48.104;11.702;2023-05-10T06:47:37;4.90;;;1.33;;
62102;SDS011;48077;48.104;11.702;2023-05-10T06:50:00;3.35;;;1.30;;
62102;SDS011;48077;48.104;11.702;2023-05-10T06:52:23;4.20;;;1.23;;
62102;SDS011;48077;48.104;11.702;2023-05-10T06:54:47;2.60;;;1.05;;
62102;SDS011;48077;48.104;11.702;2023-05-10T06:57:10;4.40;;;1.58;;
62102;SDS011;48077;48.104;11.702;2023-05-10T06:59:34;3.08;;;1.30;;
62102;SDS011;48077;48.104;11.702;2023-05-10T07:01:57;3.58;;;1.23;;
62102;SDS011;48077;48.104;11.702;2023-05-10T07:04:20;6.00;;;1.60;;
62102;SDS011;48077;48.104;11.702;2023-05-10T07:06:44;4.97;;;1.63;;
62102;SDS011;48077;48.104;11.702;2023-05-10T07:09:09;4.05;;;1.33;;
62102;SDS011;48077;48.104;11.702;2023-05-10T07:11:33;5.55;;;1.50;;
62102;SDS011;48077;48.104;11.702;2023-05-10T07:13:56;3.15;;;1.42;;
62102;SDS011;48077;48.104;11.702;2023-05-10T07:16:19;5.28;;;1.80;;
62102;SDS011;48077;48.104;11.702;2023-05-10T07:18:44;6.30;;;1.58;;
62102;SDS011;48077;48.104;11.702;2023-05-10T07:21:07;4.05;;;1.67;;
62102;SDS011;48077;48.104;11.702;2023-05-10T07:23:31;3.53;;;1.48;;
62102;SDS011;48077;48.104;11.702;2023-05-10T07:25:54;1.50;;;1.00;;
62102;SDS011;48077;48.104;11.702;2023-05-10T07:28:20;3.72;;;1.42;;
62102;SDS011;48077;48.104;11.702;2023-05-10T07:30:43;4.78;;;1.65;;
62102;SDS011;48077;48.104;11.702;2023-05-10T07:33:07;5.57;;;1.63;;
62102;SDS011;48077;48.104;11.702;2023-05-10T07:35:31;7.32;;;1.83;;
62102;SDS011;48077;48.104;11.702;2023-05-10T07:37:55;3.53;;;1.48;;
62102;SDS011;48077;48.104;11.702;2023-05-10T07:40:18;4.40;;;1.67;;
62102;SDS011;48077;48.104;11.702;2023-05-10T07:42:42;2.70;;;1.15;;
62102;SDS011;48077;48.104;11.702;2023-05-10T07:45:05;2.65;;;1.35;;
62102;SDS011;48077;48.104;11.702;2023-05-10T07:47:29;2.20;;;1.10;;
62102;SDS011;48077;48.104;11.702;2023-05-10T07:49:52;1.90;;;1.30;;
62102;SDS011;48077;48.104;11.702;2023-05-10T07:52:16;6.45;;;1.65;;
62102;SDS011;48077;48.104;11.702;2023-05-10T07:54:39;3.72;;;1.50;;
62102;SDS011;48077;48.104;11.702;2023-05-10T07:57:02;7.55;;;1.92;;
62102;SDS011;48077;48.104;11.702;2023-05-10T07:59:26;3.65;;;1.25;;
62102;SDS011;48077;48.104;11.702;2023-05-10T08:01:49;5.82;;;1.73;;
62102;SDS011;48077;48.104;11.702;2023-05-10T08:04:13;2.88;;;1.50;;
62102;SDS011;48077;48.104;11.702;2023-05-10T08:06:36;2.67;;;1.13;;
62102;SDS011;48077;48.104;11.702;2023-05-10T08:08:59;5.22;;;1.40;;
62102;SDS011;48077;48.104;11.702;2023-05-10T08:11:25;4.07;;;1.33;;
62102;SDS011;48077;48.104;11.702;2023-05-10T08:13:50;5.07;;;1.45;;
62102;SDS011;48077;48.104;11.702;2023-05-10T08:16:14;9.63;;;1.92;;
62102;SDS011;48077;48.104;11.702;2023-05-10T08:18:39;3.60;;;1.23;;
62102;SDS011;48077;48.104;11.702;2023-05-10T08:21:02;4.25;;;1.30;;
62102;SDS011;48077;48.104;11.702;2023-05-10T08:23:27;6.78;;;1.75;;
62102;SDS011;48077;48.104;11.702;2023-05-10T08:25:51;3.78;;;1.23;;
62102;SDS011;48077;48.104;11.702;2023-05-10T08:28:14;3.97;;;1.42;;
62102;SDS011;48077;48.104;11.702;2023-05-10T08:30:38;3.85;;;1.42;;
62102;SDS011;48077;48.104;11.702;2023-05-10T08:33:01;4.22;;;1.23;;
62102;SDS011;48077;48.104;11.702;2023-05-10T08:35:24;3.80;;;1.27;;
62102;SDS011;48077;48.104;11.702;2023-05-10T08:37:48;4.85;;;1.55;;
62102;SDS011;48077;48.104;11.702;2023-05-10T08:40:11;4.70;;;1.77;;
62102;SDS011;48077;48.104;11.702;2023-05-10T08:42:36;3.63;;;1.23;;
62102;SDS011;48077;48.104;11.702;2023-05-10T08:45:01;5.57;;;1.45;;
62102;SDS011;48077;48.104;11.702;2023-05-10T08:47:28;4.07;;;1.23;;
62102;SDS011;48077;48.104;11.702;2023-05-10T08:49:52;0.75;;;0.75;;
62102;SDS011;48077;48.104;11.702;2023-05-10T08:52:17;6.38;;;1.35;;
62102;SDS011;48077;48.104;11.702;2023-05-10T08:54:41;4.65;;;1.15;;
62102;SDS011;48077;48.104;11.702;2023-05-10T08:57:05;2.75;;;0.90;;
62102;SDS011;48077;48.104;11.702;2023-05-10T08:59:29;2.60;;;0.98;;
62102;SDS011;48077;48.104;11.702;2023-05-10T09:01:53;2.35;;;0.90;;
62102;SDS011;48077;48.104;11.702;2023-05-10T09:04:19;3.15;;;1.17;;
62102;SDS011;48077;48.104;11.702;2023-05-10T09:06:42;4.55;;;1.30;;
62102;SDS011;48077;48.104;11.702;2023-05-10T09:09:08;4.78;;;1.55;;
62102;SDS011;48077;48.104;11.702;2023-05-10T09:11:32;4.00;;;1.23;;
62102;SDS011;48077;48.104;11.702;2023-05-10T09:13:55;4.55;;;1.42;;
62102;SDS011;48077;48.104;11.702;2023-05-10T09:16:19;3.00;;;1.15;;
62102;SDS011;48077;48.104;11.702;2023-05-10T09:18:44;3.05;;;1.10;;
62102;SDS011;48077;48.104;11.702;2023-05-10T09:21:08;3.00;;;1.17;;
62102;SDS011;48077;48.104;11.702;2023-05-10T09:23:32;3.08;;;1.00;;
62102;SDS011;48077;48.104;11.702;2023-05-10T09:26:03;1.77;;;0.80;;
62102;SDS011;48077;48.104;11.702;2023-05-10T09:28:31;2.15;;;1.05;;
62102;SDS011;48077;48.104;11.702;2023-05-10T09:30:55;5.30;;;1.38;;
62102;SDS011;48077;48.104;11.702;2023-05-10T09:33:19;4.82;;;1.27;;
62102;SDS011;48077;48.104;11.702;2023-05-10T09:35:43;3.08;;;1.05;;
62102;SDS011;48077;48.104;11.702;2023-05-10T09:38:06;2.15;;;1.08;;
62102;SDS011;48077;48.104;11.702;2023-05-10T09:40:30;4.38;;;1.15;;
62102;SDS011;48077;48.104;11.702;2023-05-10T09:42:55;3.47;;;1.00;;
62102;SDS011;48077;48.104;11.702;2023-05-10T09:45:23;2.75;;;1.17;;
62102;SDS011;48077;48.104;11.702;2023-05-10T09:47:47;2.58;;;1.05;;
62102;SDS011;48077;48.104;11.702;2023-05-10T09:50:11;5.55;;;1.90;;
62102;SDS011;48077;48.104;11.702;2023-05-10T09:52:47;5.00;;;1.27;;
62102;SDS011;48077;48.104;11.702;2023-05-10T09:55:17;2.45;;;1.15;;
62102;SDS011;48077;48.104;11.702;2023-05-10T09:57:42;2.17;;;1.00;;
62102;SDS011;48077;48.104;11.702;2023-05-10T10:00:08;4.55;;;1.40;;
62102;SDS011;48077;48.104;11.702;2023-05-10T10:02:35;2.13;;;0.80;;
62102;SDS011;48077;48.104;11.702;2023-05-10T10:05:02;4.68;;;1.30;;
62102;SDS011;48077;48.104;11.702;2023-05-10T10:07:26;4.82;;;1.17;;
62102;SDS011;48077;48.104;11.702;2023-05-10T10:09:50;3.58;;;1.15;;
62102;SDS011;48077;48.104;11.702;2023-05-10T10:12:13;7.32;;;2.53;;
62102;SDS011;48077;48.104;11.702;2023-05-10T10:14:37;2.63;;;1.08;;
62102;SDS011;48077;48.104;11.702;2023-05-10T10:17:04;5.57;;;1.27;;
62102;SDS011;48077;48.104;11.702;2023-05-10T10:19:27;3.30;;;1.00;;
62102;SDS011;48077;48.104;11.702;2023-05-10T10:21:51;4.05;;;1.15;;
62102;SDS011;48077;48.104;11.702;2023-05-10T10:24:14;4.20;;;1.30;;
62102;SDS011;48077;48.104;11.702;2023-05-10T10:26:37;5.13;;;1.35;;
62102;SDS011;48077;48.104;11.702;2023-05-10T10:29:09;5.15;;;1.25;;
62102;SDS011;48077;48.104;11.702;2023-05-10T10:31:40;5.03;;;1.92;;
62102;SDS011;48077;48.104;11.702;2023-05-10T10:34:09;4.57;;;1.38;;
62102;SDS011;48077;48.104;11.702;2023-05-10T10:36:40;4.53;;;1.15;;
62102;SDS011;48077;48.104;11.702;2023-05-10T10:39:10;2.33;;;1.13;;
62102;SDS011;48077;48.104;11.702;2023-05-10T10:41:50;1.95;;;0.95;;
62102;SDS011;48077;48.104;11.702;2023-05-10T10:55:02;5.32;;;1.20;;
62102;SDS011;48077;48.104;11.702;2023-05-10T10:57:35;2.35;;;1.10;;
62102;SDS011;48077;48.104;11.702;2023-05-10T11:03:08;1.80;;;0.90;;
62102;SDS011;48077;48.104;11.702;2023-05-10T11:05:43;0.63;;;0.60;;
62102;SDS011;48077;48.104;11.702;2023-05-10T11:08:19;1.70;;;1.05;;
62102;SDS011;48077;48.104;11.702;2023-05-10T11:13:27;1.15;;;0.73;;
62102;SDS011;48077;48.104;11.702;2023-05-10T11:15:51;2.13;;;0.82;;
62102;SDS011;48077;48.104;11.702;2023-05-10T11:20:41;1.55;;;0.90;;
62102;SDS011;48077;48.104;11.702;2023-05-10T11:23:11;3.67;;;2.28;;
62102;SDS011;48077;48.104;11.702;2023-05-10T11:25:42;2.17;;;1.20;;
62102;SDS011;48077;48.104;11.702;2023-05-10T11:28:06;2.08;;;1.10;;
62102;SDS011;48077;48.104;11.702;2023-05-10T11:30:33;5.18;;;0.95;;
62102;SDS011;48077;48.104;11.702;2023-05-10T11:32:56;1.77;;;1.02;;
62102;SDS011;48077;48.104;11.702;2023-05-10T11:35:19;1.55;;;1.00;;
62102;SDS011;48077;48.104;11.702;2023-05-10T11:37:43;1.58;;;1.08;;
62102;SDS011;48077;48.104;11.702;2023-05-10T11:40:11;2.80;;;1.65;;
62102;SDS011;48077;48.104;11.702;2023-05-10T11:42:37;2.97;;;1.33;;
62102;SDS011;48077;48.104;11.702;2023-05-10T11:45:01;1.63;;;1.30;;
62102;SDS011;48077;48.104;11.702;2023-05-10T11:47:24;2.33;;;1.02;;
62102;SDS011;48077;48.104;11.702;2023-05-10T11:49:48;4.68;;;1.70;;
62102;SDS011;48077;48.104;11.702;2023-05-10T11:52:11;4.00;;;1.50;;
62102;SDS011;48077;48.104;11.702;2023-05-10T11:54:35;3.65;;;1.20;;
62102;SDS011;48077;48.104;11.702;2023-05-10T11:56:58;3.75;;;1.00;;
62102;SDS011;48077;48.104;11.702;2023-05-10T11:59:23;4.25;;;1.27;;
62102;SDS011;48077;48.104;11.702;2023-05-10T12:01:48;3.03;;;1.35;;
62102;SDS011;48077;48.104;11.702;2023-05-10T12:04:11;5.05;;;1.45;;
62102;SDS011;48077;48.104;11.702;2023-05-10T12:06:37;5.15;;;1.40;;
62102;SDS011;48077;48.104;11.702;2023-05-10T12:09:06;3.92;;;1.50;;
62102;SDS011;48077;48.104;11.702;2023-05-10T12:11:31;4.68;;;1.52;;
62102;SDS011;48077;48.104;11.702;2023-05-10T12:13:55;6.82;;;1.83;;
62102;SDS011;48077;48.104;11.702;2023-05-10T12:16:20;6.47;;;1.83;;
62102;SDS011;48077;48.104;11.702;2023-05-10T12:18:48;5.80;;;2.13;;
62102;SDS011;48077;48.104;11.702;2023-05-10T12:21:13;4.70;;;2.30;;
62102;SDS011;48077;48.104;11.702;2023-05-10T12:23:38;9.25;;;2.05;;
62102;SDS011;48077;48.104;11.702;2023-05-10T12:26:03;5.00;;;1.80;;
62102;SDS011;48077;48.104;11.702;2023-05-10T12:28:29;8.55;;;2.20;;
62102;SDS011;48077;48.104;11.702;2023-05-10T12:30:53;4.78;;;1.75;;
62102;SDS011;48077;48.104;11.702;2023-05-10T12:33:17;6.65;;;2.33;;
62102;SDS011;48077;48.104;11.702;2023-05-10T12:35:45;4.43;;;1.67;;
62102;SDS011;48077;48.104;11.702;2023-05-10T12:38:24;6.63;;;1.80;;
62102;SDS011;48077;48.104;11.702;2023-05-10T12:40:52;7.93;;;1.73;;
62102;SDS011;48077;48.104;11.702;2023-05-10T12:43:16;5.18;;;1.88;;
62102;SDS011;48077;48.104;11.702;2023-05-10T12:45:39;7.00;;;1.58;;
62102;SDS011;48077;48.104;11.702;2023-05-10T12:48:02;4.70;;;1.38;;
62102;SDS011;48077;48.104;11.702;2023-05-10T12:50:26;4.30;;;1.48;;
62102;SDS011;48077;48.104;11.702;2023-05-10T12:52:49;5.20;;;1.60;;
62102;SDS011;48077;48.104;11.702;2023-05-10T12:55:12;4.53;;;1.67;;
62102;SDS011;48077;48.104;11.702;2023-05-10T12:57:36;5.25;;;1.58;;
62102;SDS011;48077;48.104;11.702;2023-05-10T12:59:59;5.05;;;1.55;;
62102;SDS011;48077;48.104;11.702;2023-05-10T13:02:23;4.57;;;1.67;;
62102;SDS011;48077;48.104;11.702;2023-05-10T13:04:46;4.38;;;1.77;;
62102;SDS011;48077;48.104;11.702;2023-05-10T13:07:10;3.53;;;2.17;;
62102;SDS011;48077;48.104;11.702;2023-05-10T13:09:33;9.57;;;3.97;;
62102;SDS011;48077;48.104;11.702;2023-05-10T13:11:57;15.57;;;6.88;;
62102;SDS011;48077;48.104;11.702;2023-05-10T13:14:21;17.40;;;5.45;;
62102;SDS011;48077;48.104;11.702;2023-05-10T13:16:44;9.93;;;4.30;;
62102;SDS011;48077;48.104;11.702;2023-05-10T13:19:08;6.78;;;4.28;;
62102;SDS011;48077;48.104;11.702;2023-05-10T13:21:31;6.20;;;2.72;;
62102;SDS011;48077;48.104;11.702;2023-05-10T13:23:54;8.55;;;3.83;;
62102;SDS011;48077;48.104;11.702;2023-05-10T13:26:18;5.88;;;2.83;;
62102;SDS011;48077;48.104;11.702;2023-05-10T13:28:41;8.57;;;2.90;;
62102;SDS011;48077;48.104;11.702;2023-05-10T13:31:06;9.30;;;2.50;;
62102;SDS011;48077;48.104;11.702;2023-05-10T13:33:30;4.93;;;2.10;;
62102;SDS011;48077;48.104;11.702;2023-05-10T13:35:53;8.77;;;3.80;;
62102;SDS011;48077;48.104;11.702;2023-05-10T13:38:16;18.05;;;7.18;;
62102;SDS011;48077;48.104;11.702;2023-05-10T13:40:40;16.35;;;6.68;;
62102;SDS011;48077;48.104;11.702;2023-05-10T13:43:03;17.42;;;7.38;;
62102;SDS011;48077;48.104;11.702;2023-05-10T13:45:27;25.05;;;11.07;;
62102;SDS011;48077;48.104;11.702;2023-05-10T13:47:50;21.02;;;8.77;;
62102;SDS011;48077;48.104;11.702;2023-05-10T13:50:14;15.05;;;6.47;;
62102;SDS011;48077;48.104;11.702;2023-05-10T13:52:38;12.75;;;4.75;;
62102;SDS011;48077;48.104;11.702;2023-05-10T13:55:01;9.43;;;4.43;;
62102;SDS011;48077;48.104;11.702;2023-05-10T13:57:25;20.13;;;10.00;;
62102;SDS011;48077;48.104;11.702;2023-05-10T13:59:49;16.38;;;8.07;;
62102;SDS011;48077;48.104;11.702;2023-05-10T14:02:12;11.95;;;7.25;;
62102;SDS011;48077;48.104;11.702;2023-05-10T14:04:36;8.27;;;5.40;;
62102;SDS011;48077;48.104;11.702;2023-05-10T14:06:59;7.55;;;4.55;;
62102;SDS011;48077;48.104;11.702;2023-05-10T14:09:25;5.38;;;3.45;;
62102;SDS011;48077;48.104;11.702;2023-05-10T14:11:48;8.32;;;5.82;;
62102;SDS011;48077;48.104;11.702;2023-05-10T14:14:12;9.77;;;7.40;;
62102;SDS011;48077;48.104;11.702;2023-05-10T14:16:36;7.57;;;3.40;;
62102;SDS011;48077;48.104;11.702;2023-05-10T14:18:59;6.03;;;2.15;;
62102;SDS011;48077;48.104;11.702;2023-05-10T14:21:23;10.10;;;3.90;;
62102;SDS011;48077;48.104;11.702;2023-05-10T14:23:46;5.75;;;2.90;;
62102;SDS011;48077;48.104;11.702;2023-05-10T14:26:09;7.00;;;3.00;;
62102;SDS011;48077;48.104;11.702;2023-05-10T14:28:33;3.88;;;1.75;;
62102;SDS011;48077;48.104;11.702;2023-05-10T14:30:56;5.63;;;2.28;;
62102;SDS011;48077;48.104;11.702;2023-05-10T14:33:20;4.65;;;2.35;;
62102;SDS011;48077;48.104;11.702;2023-05-10T14:35:43;4.97;;;2.03;;
62102;SDS011;48077;48.104;11.702;2023-05-10T14:38:08;3.90;;;1.45;;
62102;SDS011;48077;48.104;11.702;2023-05-10T14:40:31;3.95;;;1.27;;
62102;SDS011;48077;48.104;11.702;2023-05-10T14:42:55;3.85;;;1.50;;
62102;SDS011;48077;48.104;11.702;2023-05-10T14:45:19;7.40;;;2.35;;
62102;SDS011;48077;48.104;11.702;2023-05-10T14:47:43;5.57;;;1.92;;
62102;SDS011;48077;48.104;11.702;2023-05-10T14:50:07;4.25;;;2.03;;
62102;SDS011;48077;48.104;11.702;2023-05-10T14:52:30;4.47;;;1.65;;
62102;SDS011;48077;48.104;11.702;2023-05-10T14:54:54;5.00;;;1.77;;
62102;SDS011;48077;48.104;11.702;2023-05-10T14:57:17;7.10;;;2.20;;
62102;SDS011;48077;48.104;11.702;2023-05-10T14:59:41;4.05;;;1.45;;
62102;SDS011;48077;48.104;11.702;2023-05-10T15:02:04;5.03;;;1.65;;